Time;durP1;ratioP1;P1;durP2;ratioP2;P2;SDS_P1;SDS_P2;PMS_P1;PMS_P2;Temp;Humidity;BMP_temperature;BMP_pressure;BME280_temperature;BME280_humidity;BME280_pressure;Samples;Min_cycle;Max_cycle;Signal;HPM_P1;HPM_P2
2022/05/31 00:01:08;;;;;;;3.10;2.80;;;9.60;85.80;;;;;;4206588;28;21429;-73
2022/05/31 00:03:10;;;;;;;3.78;2.70;;;9.60;86.90;;;;;;4210008;28;20126;-73
2022/05/31 00:05:13;;;;;;;6.75;3.58;;;9.60;86.30;;;;;;4208064;28;20175;-73
2022/05/31 00:07:15;;;;;;;2.72;2.47;;;9.50;86.90;;;;;;4209743;28;20057;-74
2022/05/31 00:09:17;;;;;;;3.33;2.95;;;9.50;87.00;;;;;;4210554;28;20063;-73
2022/05/31 00:11:19;;;;;;;5.35;2.70;;;9.50;87.00;;;;;;4211976;28;20079;-73
2022/05/31 00:13:21;;;;;;;33.65;19.75;;;9.50;87.10;;;;;;4213542;28;20145;-73
2022/05/31 00:15:23;;;;;;;31.67;20.23;;;9.40;87.40;;;;;;4208190;28;21047;-73
2022/05/31 00:17:25;;;;;;;32.38;18.67;;;9.40;87.40;;;;;;4214013;28;20065;-73
2022/05/31 00:19:27;;;;;;;29.98;19.15;;;9.40;87.60;;;;;;4210608;28;20097;-73
2022/05/31 00:21:42;;;;;;;28.25;16.23;;;9.40;87.80;;;;;;4211366;28;20099;-73
2022/05/31 00:23:43;;;;;;;29.73;19.23;;;9.30;87.90;;;;;;4211946;28;20645;-73
2022/05/31 00:25:45;;;;;;;18.92;13.98;;;9.30;88.00;;;;;;4208445;28;20063;-73
2022/05/31 00:27:47;;;;;;;16.20;12.93;;;9.30;88.30;;;;;;4211803;28;20861;-73
2022/05/31 00:29:49;;;;;;;19.55;13.88;;;9.30;88.40;;;;;;4211880;28;20072;-74
2022/05/31 00:31:52;;;;;;;12.23;9.40;;;9.30;88.30;;;;;;4214118;28;20209;-73
2022/05/31 00:33:54;;;;;;;11.60;8.15;;;9.20;88.40;;;;;;4212788;28;20063;-73
2022/05/31 00:35:56;;;;;;;13.20;9.35;;;9.20;88.50;;;;;;4206308;28;20789;-74
2022/05/31 00:37:59;;;;;;;10.73;8.75;;;9.20;89.10;;;;;;4208222;28;20906;-73
2022/05/31 00:40:01;;;;;;;11.60;10.32;;;9.20;88.90;;;;;;4210258;28;20056;-73
2022/05/31 00:42:12;;;;;;;8.80;7.95;;;9.20;89.10;;;;;;4211676;28;20049;-73
2022/05/31 00:44:19;;;;;;;9.45;8.27;;;9.20;89.20;;;;;;4208209;28;20868;-73
2022/05/31 00:46:23;;;;;;;10.73;7.65;;;9.20;89.20;;;;;;4208669;28;20053;-73
2022/05/31 00:48:35;;;;;;;10.73;9.23;;;9.20;89.10;;;;;;4210015;28;20067;-73
2022/05/31 00:50:44;;;;;;;17.70;12.93;;;9.10;89.10;;;;;;4212532;28;20083;-73
2022/05/31 00:52:49;;;;;;;15.13;11.98;;;9.10;89.30;;;;;;4203433;28;20119;-73
2022/05/31 00:55:02;;;;;;;10.38;9.27;;;9.10;89.70;;;;;;4205030;28;20143;-72
2022/05/31 00:57:05;;;;;;;12.75;11.65;;;9.10;89.60;;;;;;4206001;28;20087;-73
2022/05/31 00:59:14;;;;;;;9.50;8.70;;;9.10;89.60;;;;;;4202359;28;20887;-73
2022/05/31 01:01:17;;;;;;;8.07;7.30;;;9.00;89.80;;;;;;4201137;28;20115;-73
2022/05/31 01:03:21;;;;;;;6.82;6.22;;;9.00;89.80;;;;;;4208556;28;20118;-73
2022/05/31 01:05:24;;;;;;;6.03;3.97;;;9.00;89.90;;;;;;4202171;28;20060;-73
2022/05/31 01:07:26;;;;;;;3.70;2.80;;;8.90;90.20;;;;;;4214685;28;20111;-72
2022/05/31 01:09:30;;;;;;;3.83;2.63;;;8.80;90.30;;;;;;4206479;28;20045;-73
2022/05/31 01:11:43;;;;;;;4.25;2.75;;;8.80;90.30;;;;;;4217135;28;20060;-73
2022/05/31 01:13:44;;;;;;;2.97;2.67;;;8.80;90.50;;;;;;4206103;28;20061;-73
2022/05/31 01:15:48;;;;;;;3.88;2.15;;;8.70;90.60;;;;;;4217541;28;20056;-73
2022/05/31 01:17:50;;;;;;;1.80;1.70;;;8.70;90.60;;;;;;4216210;28;20063;-73
2022/05/31 01:19:56;;;;;;;3.40;2.30;;;8.70;90.80;;;;;;4215279;28;20057;-74
2022/05/31 01:21:58;;;;;;;2.33;1.63;;;8.70;90.80;;;;;;4207601;28;20811;-74
2022/05/31 01:24:06;;;;;;;2.53;1.80;;;8.70;90.90;;;;;;4206337;28;20057;-74
2022/05/31 01:26:32;;;;;;;2.67;2.47;;;8.70;91.00;;;;;;4211441;28;20096;-73
2022/05/31 01:29:13;;;;;;;2.15;1.95;;;8.60;91.20;;;;;;4211473;28;20060;-74
2022/05/31 01:31:19;;;;;;;;;;;8.60;91.30;;;;;;4210223;28;20060;-73
2022/05/31 01:35:32;;;;;;;3.47;1.50;;;8.70;91.10;;;;;;4210210;22;41588;-75
2022/05/31 01:37:51;;;;;;;3.33;1.50;;;8.70;91.00;;;;;;4208814;28;20071;-75
2022/05/31 01:40:01;;;;;;;1.92;1.83;;;8.60;91.10;;;;;;4189026;28;20642;-75
2022/05/31 01:42:13;;;;;;;6.10;1.73;;;8.60;91.30;;;;;;4182337;28;20079;-76
2022/05/31 01:44:18;;;;;;;2.03;1.80;;;8.50;91.40;;;;;;4188669;28;20053;-75
2022/05/31 01:46:24;;;;;;;1.80;1.50;;;8.40;91.70;;;;;;4199293;28;20148;-76
2022/05/31 01:48:30;;;;;;;2.20;1.60;;;8.40;91.90;;;;;;4189166;28;20821;-75
2022/05/31 01:50:32;;;;;;;2.05;1.85;;;8.50;91.80;;;;;;4215926;28;20052;-76
2022/05/31 01:52:35;;;;;;;1.92;1.50;;;8.50;91.80;;;;;;4206494;28;20071;-75
2022/05/31 01:54:38;;;;;;;1.45;1.20;;;8.50;91.80;;;;;;4196748;28;20095;-75
2022/05/31 01:56:42;;;;;;;2.45;2.08;;;8.50;91.70;;;;;;4204326;28;20091;-75
2022/05/31 01:58:48;;;;;;;4.50;1.70;;;8.50;92.10;;;;;;4209294;28;20144;-75
2022/05/31 02:00:51;;;;;;;3.50;2.40;;;8.40;92.20;;;;;;4217451;28;20065;-76
2022/05/31 02:02:58;;;;;;;4.00;1.58;;;8.30;92.40;;;;;;4191329;28;20160;-75
2022/05/31 02:05:00;;;;;;;2.17;2.00;;;8.40;92.50;;;;;;4189727;28;20052;-76
2022/05/31 02:07:11;;;;;;;2.75;1.85;;;8.30;92.60;;;;;;4187820;28;20728;-76
2022/05/31 02:09:14;;;;;;;2.08;1.60;;;8.40;92.60;;;;;;4202231;28;20057;-74
2022/05/31 02:11:16;;;;;;;2.97;1.80;;;8.40;92.80;;;;;;4193882;28;20080;-76
2022/05/31 02:13:18;;;;;;;2.75;1.80;;;8.20;93.00;;;;;;4195697;28;20061;-76
2022/05/31 02:15:22;;;;;;;1.63;1.52;;;8.10;93.40;;;;;;4212656;28;20155;-76
2022/05/31 02:17:25;;;;;;;1.80;1.33;;;8.10;93.60;;;;;;4199077;28;20662;-75
2022/05/31 02:19:27;;;;;;;3.17;1.85;;;8.10;93.60;;;;;;4205483;28;20060;-74
2022/05/31 02:21:35;;;;;;;4.97;2.03;;;8.20;93.60;;;;;;4203078;28;20082;-75
2022/05/31 02:23:37;;;;;;;3.05;1.58;;;8.20;93.60;;;;;;4200226;28;20045;-76
2022/05/31 02:25:40;;;;;;;2.58;1.70;;;8.30;93.90;;;;;;4202652;28;20064;-75
2022/05/31 02:27:42;;;;;;;2.58;1.30;;;8.20;93.60;;;;;;4209494;28;20148;-75
2022/05/31 02:29:44;;;;;;;2.20;1.88;;;8.20;93.80;;;;;;4203492;28;20053;-76
2022/05/31 02:31:46;;;;;;;2.88;1.55;;;8.20;93.70;;;;;;4205266;28;20067;-76
2022/05/31 02:33:48;;;;;;;3.28;1.98;;;8.20;93.80;;;;;;4214948;28;20844;-75
2022/05/31 02:35:50;;;;;;;3.72;2.00;;;8.20;93.60;;;;;;4211197;28;20053;-75
2022/05/31 02:37:52;;;;;;;2.05;1.40;;;8.20;93.50;;;;;;4214342;28;20642;-75
2022/05/31 02:39:54;;;;;;;1.80;1.70;;;8.20;93.60;;;;;;4214353;28;20048;-75
2022/05/31 02:41:57;;;;;;;2.28;1.58;;;8.20;93.60;;;;;;4209079;28;20085;-76
2022/05/31 02:44:00;;;;;;;5.40;1.95;;;8.20;93.70;;;;;;4207341;28;20092;-75
2022/05/31 02:46:03;;;;;;;2.35;1.83;;;8.20;93.70;;;;;;4200939;28;20076;-75
2022/05/31 02:48:05;;;;;;;3.22;1.63;;;8.20;93.60;;;;;;4192702;28;20130;-75
2022/05/31 02:50:07;;;;;;;2.63;2.42;;;8.30;93.40;;;;;;4213924;28;20088;-76
2022/05/31 02:52:09;;;;;;;4.10;2.45;;;8.30;93.30;;;;;;4208160;28;20095;-76
2022/05/31 02:54:13;;;;;;;4.32;2.10;;;8.30;93.20;;;;;;4193510;28;20919;-76
2022/05/31 02:56:15;;;;;;;4.70;2.10;;;8.20;93.40;;;;;;4205264;28;20801;-76
2022/05/31 02:58:17;;;;;;;2.85;2.10;;;8.20;93.70;;;;;;4209646;28;21226;-75
2022/05/31 03:00:19;;;;;;;4.32;3.65;;;8.10;93.70;;;;;;4185009;28;20853;-75
2022/05/31 03:02:21;;;;;;;4.22;2.40;;;8.10;93.80;;;;;;4179809;28;20049;-75
2022/05/31 03:04:23;;;;;;;6.35;3.03;;;8.10;93.70;;;;;;4197005;28;20148;-75
2022/05/31 03:06:25;;;;;;;2.92;2.42;;;8.10;93.80;;;;;;4199204;28;20156;-75
2022/05/31 03:08:27;;;;;;;4.43;2.30;;;8.00;94.00;;;;;;4213021;28;20791;-75
2022/05/31 03:10:34;;;;;;;2.60;2.30;;;7.90;94.20;;;;;;4190817;28;21071;-75
2022/05/31 03:12:36;;;;;;;3.13;2.72;;;7.80;94.60;;;;;;4193978;28;20061;-75
2022/05/31 03:15:06;;;;;;;4.95;3.10;;;7.60;95.00;;;;;;4195755;28;20088;-75
2022/05/31 03:17:15;;;;;;;2.83;2.28;;;7.60;95.80;;;;;;4187208;28;20160;-75
2022/05/31 03:19:27;;;;;;;2.67;2.45;;;7.50;95.90;;;;;;4210862;28;20775;-75
2022/05/31 03:21:39;;;;;;;5.65;3.00;;;7.40;96.20;;;;;;4211340;28;20060;-76
2022/05/31 03:23:46;;;;;;;3.20;2.92;;;7.40;96.70;;;;;;4203575;28;20049;-75
2022/05/31 03:25:50;;;;;;;5.38;2.88;;;7.40;97.10;;;;;;4205391;28;20170;-75
2022/05/31 03:27:55;;;;;;;4.20;2.80;;;7.50;96.50;;;;;;4196783;28;20242;-76
2022/05/31 03:29:59;;;;;;;4.93;2.60;;;7.50;96.70;;;;;;4210380;28;20981;-75
2022/05/31 03:32:00;;;;;;;3.50;2.85;;;7.50;97.00;;;;;;4206676;28;20067;-75
2022/05/31 03:34:02;;;;;;;4.68;2.28;;;7.50;96.80;;;;;;4217931;28;20053;-75
2022/05/31 03:36:04;;;;;;;2.50;2.30;;;7.60;96.70;;;;;;4217751;28;20119;-75
2022/05/31 03:38:06;;;;;;;2.17;1.98;;;7.60;97.10;;;;;;4225862;28;20059;-75
2022/05/31 03:40:09;;;;;;;3.08;2.15;;;7.60;97.00;;;;;;4204622;28;20152;-75
2022/05/31 03:42:12;;;;;;;2.83;2.63;;;7.60;97.00;;;;;;4187700;28;20084;-75
2022/05/31 03:44:14;;;;;;;2.25;2.05;;;7.60;96.70;;;;;;4207228;28;20167;-75
2022/05/31 03:46:17;;;;;;;4.78;2.80;;;7.70;96.60;;;;;;4187724;28;20057;-75
2022/05/31 03:48:18;;;;;;;2.40;1.88;;;7.70;96.40;;;;;;4201343;28;20667;-75
2022/05/31 03:50:20;;;;;;;3.58;1.98;;;7.80;96.30;;;;;;4202345;28;20155;-75
2022/05/31 03:52:22;;;;;;;1.80;1.70;;;7.80;96.30;;;;;;4198731;28;20882;-75
2022/05/31 03:54:24;;;;;;;2.92;2.33;;;7.90;96.20;;;;;;4195339;28;20061;-75
2022/05/31 03:56:26;;;;;;;2.22;1.85;;;7.80;96.10;;;;;;4211586;28;20063;-75
2022/05/31 03:58:28;;;;;;;3.60;1.73;;;7.70;96.50;;;;;;4204894;28;20376;-75
2022/05/31 04:00:29;;;;;;;3.03;2.05;;;7.70;96.50;;;;;;4203122;28;20798;-75
2022/05/31 04:02:31;;;;;;;3.70;2.20;;;7.70;96.60;;;;;;4209482;28;20871;-75
2022/05/31 04:04:33;;;;;;;1.92;1.83;;;7.70;96.70;;;;;;4215206;28;20622;-76
2022/05/31 04:06:35;;;;;;;2.35;2.08;;;7.70;97.00;;;;;;4203340;28;20917;-76
2022/05/31 04:08:37;;;;;;;3.70;1.95;;;7.70;97.00;;;;;;4202063;28;20666;-75
2022/05/31 04:10:41;;;;;;;6.47;2.20;;;7.70;97.30;;;;;;4217453;28;20814;-75
2022/05/31 04:12:43;;;;;;;3.08;2.63;;;7.70;97.50;;;;;;4185892;28;20101;-75
2022/05/31 04:14:45;;;;;;;2.30;2.10;;;7.70;97.40;;;;;;4209638;28;20894;-75
2022/05/31 04:16:47;;;;;;;3.05;1.90;;;7.80;97.40;;;;;;4201498;28;20068;-75
2022/05/31 04:18:49;;;;;;;2.13;1.98;;;7.80;97.00;;;;;;4201702;28;20057;-75
2022/05/31 04:20:51;;;;;;;2.05;1.85;;;7.80;96.80;;;;;;4212688;28;20057;-76
2022/05/31 04:23:58;;;;;;;2.25;1.80;;;7.80;97.00;;;;;;4198432;28;20057;-75
2022/05/31 04:25:18;;;;;;;12.75;7.65;;;7.80;97.20;;;;;;4202169;28;20061;-75
2022/05/31 04:27:21;;;;;;;5.43;3.50;;;7.80;97.50;;;;;;4217938;28;20063;-75
2022/05/31 04:29:23;;;;;;;7.13;4.00;;;7.70;97.70;;;;;;4219212;28;20048;-75
2022/05/31 04:31:25;;;;;;;6.55;3.70;;;7.80;97.80;;;;;;4202540;28;20048;-75
2022/05/31 04:33:27;;;;;;;23.85;11.95;;;7.90;97.40;;;;;;4207956;28;20157;-75
2022/05/31 04:35:29;;;;;;;6.25;4.65;;;8.00;97.20;;;;;;4198796;28;20092;-76
2022/05/31 04:37:30;;;;;;;2.90;2.70;;;8.10;97.00;;;;;;4205626;28;20068;-75
2022/05/31 04:39:32;;;;;;;23.67;12.82;;;8.20;97.00;;;;;;4218792;28;20060;-76
2022/05/31 04:41:34;;;;;;;9.90;6.22;;;8.20;96.80;;;;;;4206213;28;20057;-75
2022/05/31 04:43:36;;;;;;;25.70;12.68;;;8.30;96.70;;;;;;4195010;28;20093;-75
2022/05/31 04:45:38;;;;;;;69.05;33.50;;;8.30;96.10;;;;;;4213535;28;20809;-75
2022/05/31 04:47:39;;;;;;;41.05;19.88;;;8.50;96.00;;;;;;4211740;28;20790;-75
2022/05/31 04:49:41;;;;;;;18.02;10.18;;;8.70;95.10;;;;;;4203943;28;20103;-75
2022/05/31 04:51:43;;;;;;;9.52;5.95;;;8.80;94.70;;;;;;4195703;28;20070;-75
2022/05/31 04:53:45;;;;;;;12.45;5.90;;;9.00;94.30;;;;;;4214067;28;20053;-74
2022/05/31 04:55:46;;;;;;;10.52;6.15;;;9.10;94.40;;;;;;4205388;28;20899;-76
2022/05/31 04:57:48;;;;;;;8.55;5.35;;;9.30;94.60;;;;;;4200817;28;20903;-77
2022/05/31 04:59:49;;;;;;;3.78;2.90;;;9.50;94.10;;;;;;4207054;28;20045;-76
2022/05/31 05:01:51;;;;;;;3.40;2.30;;;9.60;93.40;;;;;;4194272;28;20053;-76
2022/05/31 05:03:54;;;;;;;4.72;2.38;;;9.80;92.50;;;;;;4196295;28;20061;-76
2022/05/31 05:06:06;;;;;;;4.82;2.28;;;10.00;91.50;;;;;;4187698;28;20061;-76
2022/05/31 05:08:07;;;;;;;5.07;2.33;;;10.20;90.80;;;;;;4210743;28;20066;-76
2022/05/31 05:10:10;;;;;;;3.22;2.28;;;10.40;90.90;;;;;;4196033;28;20058;-75
2022/05/31 05:12:11;;;;;;;3.20;1.98;;;10.50;90.90;;;;;;4199501;28;20092;-75
2022/05/31 05:14:13;;;;;;;5.30;2.40;;;10.60;90.60;;;;;;4194299;28;20064;-75
2022/05/31 05:16:16;;;;;;;5.28;1.80;;;10.70;90.50;;;;;;4196173;28;20666;-73
2022/05/31 05:18:19;;;;;;;3.40;2.13;;;10.80;90.20;;;;;;4200706;28;20056;-75
2022/05/31 05:20:22;;;;;;;2.53;1.90;;;10.90;89.80;;;;;;4193574;28;20068;-74
2022/05/31 05:22:27;;;;;;;3.58;2.08;;;11.00;89.40;;;;;;4205199;28;20067;-75
2022/05/31 05:24:28;;;;;;;3.75;2.17;;;11.00;88.40;;;;;;4200430;28;20144;-76
2022/05/31 05:26:30;;;;;;;2.20;1.65;;;11.20;87.40;;;;;;4192397;28;20084;-75
2022/05/31 05:30:52;;;;;;;2.65;2.13;;;11.30;86.60;;;;;;4193704;28;20906;-76
2022/05/31 05:32:54;;;;;;;6.28;2.13;;;11.50;86.30;;;;;;4205839;28;20064;-76
2022/05/31 05:34:56;;;;;;;5.05;2.10;;;11.50;86.20;;;;;;4195963;28;20179;-76
2022/05/31 05:36:57;;;;;;;3.63;1.95;;;11.60;84.30;;;;;;4188894;28;20064;-76
2022/05/31 05:38:59;;;;;;;3.10;1.92;;;11.70;82.70;;;;;;4208424;28;20211;-76
2022/05/31 05:41:01;;;;;;;2.28;1.90;;;11.70;81.40;;;;;;4190697;28;20057;-76
2022/05/31 05:43:06;;;;;;;4.38;2.30;;;11.90;81.80;;;;;;4186403;28;20057;-76
2022/05/31 05:45:10;;;;;;;2.30;1.70;;;12.00;81.90;;;;;;4202806;28;20060;-76
2022/05/31 05:47:15;;;;;;;2.22;1.83;;;12.10;79.30;;;;;;4194148;28;20053;-76
2022/05/31 05:49:16;;;;;;;2.83;1.80;;;12.20;80.00;;;;;;4195031;28;20999;-76
2022/05/31 05:51:18;;;;;;;2.28;2.00;;;12.20;80.20;;;;;;4196326;28;20175;-76
2022/05/31 05:53:20;;;;;;;2.50;1.38;;;12.30;80.00;;;;;;4188220;28;20152;-76
2022/05/31 05:55:21;;;;;;;2.70;1.63;;;12.40;80.00;;;;;;4189276;28;20096;-77
2022/05/31 05:57:23;;;;;;;1.70;1.60;;;12.40;79.60;;;;;;4196621;28;20496;-76
2022/05/31 05:59:25;;;;;;;3.72;2.08;;;12.50;79.60;;;;;;4204993;28;20053;-76
2022/05/31 06:02:02;;;;;;;3.25;1.40;;;12.60;79.40;;;;;;4196843;28;20065;-76
2022/05/31 06:04:30;;;;;;;3.30;1.83;;;12.70;79.70;;;;;;4186494;28;20164;-76
2022/05/31 06:06:34;;;;;;;5.07;1.70;;;13.10;79.00;;;;;;4192914;28;20060;-76
2022/05/31 06:08:44;;;;;;;1.77;1.15;;;13.30;75.40;;;;;;4187872;28;20049;-76
2022/05/31 06:10:58;;;;;;;5.38;2.20;;;13.30;75.00;;;;;;4187074;28;20061;-76
2022/05/31 06:13:21;;;;;;;2.78;1.52;;;13.30;75.60;;;;;;4195432;28;20843;-77
2022/05/31 06:15:30;;;;;;;7.00;1.70;;;13.30;75.80;;;;;;4214070;28;20063;-75
2022/05/31 06:17:38;;;;;;;3.13;1.40;;;13.20;76.70;;;;;;4224367;28;20052;-76
2022/05/31 06:19:40;;;;;;;2.90;1.70;;;13.20;76.00;;;;;;4209941;28;20207;-76
2022/05/31 06:21:43;;;;;;;1.52;1.30;;;13.30;75.60;;;;;;4202376;28;20678;-76
2022/05/31 06:23:45;;;;;;;2.10;1.25;;;13.40;75.40;;;;;;4206308;28;20634;-76
2022/05/31 06:25:47;;;;;;;4.05;1.27;;;13.50;74.60;;;;;;4201780;28;20096;-77
2022/05/31 06:27:49;;;;;;;1.50;1.17;;;13.50;74.30;;;;;;4215511;28;20303;-77
2022/05/31 06:29:51;;;;;;;2.35;1.10;;;13.60;74.30;;;;;;4201430;28;20061;-76
2022/05/31 06:31:53;;;;;;;2.53;1.15;;;13.60;74.50;;;;;;4198800;28;20175;-76
2022/05/31 06:33:55;;;;;;;3.60;1.40;;;13.60;74.70;;;;;;4202753;28;20118;-77
2022/05/31 06:35:58;;;;;;;2.72;1.05;;;13.60;75.50;;;;;;4206092;28;20061;-76
2022/05/31 06:38:01;;;;;;;1.13;1.02;;;13.70;74.20;;;;;;4208283;28;20063;-76
2022/05/31 06:40:04;;;;;;;4.45;1.33;;;13.80;73.20;;;;;;4202206;28;20847;-76
2022/05/31 06:42:06;;;;;;;1.20;0.90;;;13.90;74.20;;;;;;4197407;28;20061;-76
2022/05/31 06:44:07;;;;;;;3.72;1.58;;;14.00;75.20;;;;;;4190864;28;20886;-76
2022/05/31 06:46:11;;;;;;;2.20;1.00;;;14.10;75.00;;;;;;4194240;28;20045;-76
2022/05/31 06:48:13;;;;;;;1.38;1.13;;;14.20;75.10;;;;;;4210452;28;20065;-76
2022/05/31 06:50:15;;;;;;;0.95;0.90;;;14.30;74.60;;;;;;4196317;28;20117;-77
2022/05/31 06:57:08;;;;;;;2.75;1.10;;;14.80;73.50;;;;;;4204605;28;20064;-77
2022/05/31 06:59:10;;;;;;;2.03;0.90;;;14.80;72.30;;;;;;4196468;28;20397;-77
2022/05/31 07:01:11;;;;;;;1.58;0.90;;;14.90;72.30;;;;;;4186244;28;20088;-76
2022/05/31 07:03:13;;;;;;;2.40;0.80;;;15.00;70.30;;;;;;4197859;28;20894;-77
2022/05/31 07:05:16;;;;;;;0.85;0.80;;;15.20;69.50;;;;;;4191583;28;20615;-76
2022/05/31 07:07:18;;;;;;;3.25;0.85;;;15.30;69.90;;;;;;4198085;28;20856;-76
2022/05/31 07:09:20;;;;;;;1.38;0.85;;;15.40;68.50;;;;;;4198399;28;21030;-77
2022/05/31 07:11:21;;;;;;;1.30;1.00;;;15.50;68.60;;;;;;4201035;28;20062;-76
2022/05/31 07:13:24;;;;;;;1.27;0.85;;;15.60;68.80;;;;;;4212035;28;20067;-77
2022/05/31 07:15:26;;;;;;;4.60;1.08;;;15.70;69.50;;;;;;4198559;28;20095;-77
2022/05/31 07:17:28;;;;;;;1.08;0.70;;;15.70;68.40;;;;;;4180266;28;21144;-77
2022/05/31 07:19:30;;;;;;;1.88;0.80;;;15.80;67.30;;;;;;4207583;28;20092;-77
2022/05/31 07:21:52;;;;;;;1.05;0.80;;;15.80;67.30;;;;;;4199397;28;20960;-77
2022/05/31 07:23:53;;;;;;;2.05;0.80;;;15.80;67.90;;;;;;4194215;28;20061;-77
2022/05/31 07:25:56;;;;;;;0.88;0.80;;;15.90;67.60;;;;;;4203938;28;20172;-76
2022/05/31 07:28:19;;;;;;;1.27;1.00;;;15.90;66.50;;;;;;4206280;28;20182;-77
2022/05/31 07:30:21;;;;;;;0.73;0.57;;;16.00;67.20;;;;;;4194475;28;20139;-77
2022/05/31 07:32:23;;;;;;;1.30;0.98;;;16.00;67.10;;;;;;4189791;28;20787;-77
2022/05/31 07:36:50;;;;;;;3.20;0.82;;;16.30;67.40;;;;;;4167596;28;20070;-77
2022/05/31 07:38:51;;;;;;;2.15;1.00;;;16.30;67.20;;;;;;4180156;28;20156;-76
2022/05/31 07:40:53;;;;;;;1.60;0.80;;;16.40;67.80;;;;;;4179672;28;20100;-78
2022/05/31 07:42:55;;;;;;;0.82;0.70;;;16.50;67.20;;;;;;4168968;28;20093;-77
2022/05/31 07:44:57;;;;;;;1.40;0.65;;;16.60;67.90;;;;;;4178480;28;20062;-76
2022/05/31 07:47:03;;;;;;;2.65;1.10;;;16.70;66.60;;;;;;4172344;28;20152;-77
2022/05/31 07:49:05;;;;;;;2.83;0.95;;;16.70;65.30;;;;;;4171486;28;20058;-75
2022/05/31 07:51:07;;;;;;;0.93;0.73;;;16.60;65.70;;;;;;4170142;28;20169;-76
2022/05/31 07:53:09;;;;;;;1.63;0.70;;;16.70;65.70;;;;;;4177241;28;20053;-75
2022/05/31 07:55:11;;;;;;;0.85;0.70;;;16.70;65.50;;;;;;4183963;28;20851;-75
2022/05/31 07:59:34;;;;;;;1.00;0.75;;;16.90;63.10;;;;;;4172373;28;20822;-76
2022/05/31 08:01:36;;;;;;;0.70;0.70;;;17.10;63.50;;;;;;4170291;28;20156;-75
2022/05/31 08:03:39;;;;;;;1.85;0.80;;;17.30;62.40;;;;;;4172823;28;20057;-75
2022/05/31 08:05:41;;;;;;;1.00;0.73;;;17.40;61.90;;;;;;4171160;28;20064;-75
2022/05/31 08:07:42;;;;;;;1.10;0.85;;;17.40;62.60;;;;;;4176167;28;21111;-75
2022/05/31 08:09:44;;;;;;;1.35;0.88;;;17.40;63.20;;;;;;4176493;28;20068;-76
2022/05/31 08:11:46;;;;;;;0.65;0.60;;;17.40;63.30;;;;;;4171408;28;20891;-75
2022/05/31 08:13:48;;;;;;;1.45;0.73;;;17.50;62.50;;;;;;4174130;28;20053;-76
2022/05/31 08:15:49;;;;;;;2.13;0.65;;;17.50;62.50;;;;;;4175366;28;20160;-76
2022/05/31 08:17:51;;;;;;;2.70;0.73;;;17.60;62.60;;;;;;4173354;28;20064;-75
2022/05/31 08:19:54;;;;;;;0.73;0.60;;;17.70;62.10;;;;;;4171368;28;20064;-75
2022/05/31 08:21:56;;;;;;;1.60;0.73;;;17.60;63.80;;;;;;4174647;28;20057;-75
2022/05/31 08:24:01;;;;;;;1.75;0.75;;;17.50;65.30;;;;;;4174949;28;20145;-75
2022/05/31 08:26:23;;;;;;;1.05;0.63;;;17.60;64.90;;;;;;4176527;28;20131;-76
2022/05/31 08:28:25;;;;;;;1.90;0.80;;;17.70;64.50;;;;;;4175420;28;20920;-75
2022/05/31 08:30:28;;;;;;;5.47;1.00;;;17.70;63.90;;;;;;4172651;28;20080;-75
2022/05/31 08:32:31;;;;;;;0.80;0.80;;;17.80;63.60;;;;;;4172415;28;20054;-75
2022/05/31 08:34:33;;;;;;;1.23;0.90;;;17.90;62.90;;;;;;4172982;28;20058;-76
2022/05/31 08:36:35;;;;;;;0.93;0.63;;;17.90;64.10;;;;;;4185492;28;20058;-77
2022/05/31 08:38:38;;;;;;;1.95;1.35;;;18.10;63.30;;;;;;4169110;28;20073;-75
2022/05/31 08:41:08;;;;;;;2.00;0.95;;;18.20;61.80;;;;;;4177514;28;20064;-76
2022/05/31 08:43:18;;;;;;;3.15;0.73;;;18.30;60.90;;;;;;4178978;28;20061;-75
2022/05/31 08:45:33;;;;;;;1.17;0.70;;;18.30;59.60;;;;;;4180970;28;20054;-77
2022/05/31 08:47:46;;;;;;;1.08;0.80;;;18.40;60.20;;;;;;4174320;28;20101;-75
2022/05/31 08:53:02;;;;;;;1.50;0.80;;;18.70;61.70;;;;;;4173698;28;20066;-75
2022/05/31 08:57:56;;;;;;;3.00;0.70;;;19.20;58.50;;;;;;4145341;28;20090;-75
2022/05/31 09:00:05;;;;;;;4.15;0.60;;;19.20;57.50;;;;;;4185377;28;20152;-75
2022/05/31 09:02:19;;;;;;;0.63;0.63;;;19.10;57.80;;;;;;4178616;28;20084;-76
2022/05/31 09:04:39;;;;;;;3.10;0.65;;;19.10;58.30;;;;;;4173859;28;20068;-76
2022/05/31 09:06:48;;;;;;;2.63;0.65;;;19.00;57.90;;;;;;4176569;28;20057;-76
2022/05/31 09:09:08;;;;;;;1.38;0.68;;;19.10;57.50;;;;;;4179058;28;20144;-76
2022/05/31 09:11:30;;;;;;;2.05;0.60;;;19.20;58.80;;;;;;4191124;28;20060;-77
2022/05/31 09:14:00;;;;;;;1.95;0.75;;;19.20;57.00;;;;;;4171652;28;20068;-77
2022/05/31 09:16:10;;;;;;;1.07;0.70;;;19.30;58.50;;;;;;4175507;28;20084;-76
2022/05/31 09:18:31;;;;;;;0.80;0.43;;;19.40;58.90;;;;;;4172402;28;20215;-75
2022/05/31 09:20:36;;;;;;;0.88;0.68;;;19.40;58.80;;;;;;4170184;28;20060;-76
2022/05/31 09:22:42;;;;;;;0.85;0.70;;;19.40;58.40;;;;;;4169854;28;20093;-77
2022/05/31 09:24:46;;;;;;;1.17;0.70;;;19.60;59.20;;;;;;4172721;28;20068;-77
2022/05/31 09:27:09;;;;;;;3.67;1.02;;;19.70;57.40;;;;;;4170461;28;20054;-76
2022/05/31 09:29:33;;;;;;;2.80;0.70;;;19.80;56.40;;;;;;4173924;28;20063;-76
2022/05/31 09:32:12;;;;;;;0.90;0.63;;;19.90;56.60;;;;;;4167869;28;20058;-76
2022/05/31 09:34:56;;;;;;;3.80;0.85;;;19.90;57.80;;;;;;4170068;28;20061;-76
2022/05/31 09:37:10;;;;;;;1.05;0.55;;;20.00;57.20;;;;;;4175522;28;20181;-77
2022/05/31 09:39:42;;;;;;;2.55;0.80;;;20.10;55.60;;;;;;4168881;28;20161;-76
2022/05/31 09:42:05;;;;;;;1.13;0.73;;;19.90;55.20;;;;;;4176009;28;20082;-76
2022/05/31 09:44:49;;;;;;;3.70;1.20;;;19.80;57.10;;;;;;4177955;28;20168;-76
2022/05/31 09:47:02;;;;;;;1.10;0.85;;;19.80;56.70;;;;;;4168874;28;20053;-76
2022/05/31 09:49:26;;;;;;;3.30;0.73;;;19.70;55.10;;;;;;4180198;28;20068;-76
2022/05/31 09:51:37;;;;;;;2.63;0.63;;;19.70;53.80;;;;;;4168000;28;20064;-77
2022/05/31 09:58:24;;;;;;;0.88;0.80;;;20.20;53.10;;;;;;4165909;28;20156;-75
2022/05/31 10:00:29;;;;;;;2.15;0.93;;;20.40;52.90;;;;;;4178551;28;20057;-76
2022/05/31 10:02:35;;;;;;;2.47;1.00;;;20.50;53.70;;;;;;4179129;28;20057;-77
2022/05/31 10:04:37;;;;;;;0.85;0.70;;;20.50;52.30;;;;;;4169383;28;20781;-76
2022/05/31 10:07:03;;;;;;;5.63;0.80;;;20.50;51.90;;;;;;4166507;28;20062;-75
2022/05/31 10:09:17;;;;;;;1.90;0.70;;;20.50;51.60;;;;;;4173336;28;21216;-76
2022/05/31 10:11:29;;;;;;;1.60;0.70;;;20.50;51.60;;;;;;4179236;28;20084;-76
2022/05/31 10:13:58;;;;;;;4.50;0.70;;;20.40;52.20;;;;;;4174216;28;21495;-76
2022/05/31 10:16:17;;;;;;;1.50;0.70;;;20.50;52.70;;;;;;4170284;28;20062;-75
2022/05/31 10:18:28;;;;;;;0.80;0.60;;;20.50;51.60;;;;;;4174894;28;20120;-75
2022/05/31 10:20:31;;;;;;;1.25;0.75;;;20.50;52.30;;;;;;4174672;28;20122;-75
2022/05/31 10:22:35;;;;;;;5.15;1.05;;;20.50;52.40;;;;;;4178565;28;20061;-75
2022/05/31 10:24:37;;;;;;;2.50;1.00;;;20.40;52.00;;;;;;4179970;28;20107;-75
2022/05/31 10:26:40;;;;;;;3.30;0.63;;;20.40;52.40;;;;;;4174537;28;20056;-75
2022/05/31 10:28:52;;;;;;;2.05;0.50;;;20.50;52.60;;;;;;4181008;28;20069;-77
2022/05/31 10:31:05;;;;;;;1.98;0.80;;;20.60;52.60;;;;;;4174985;28;20068;-79
2022/05/31 10:33:19;;;;;;;5.18;0.77;;;20.80;53.90;;;;;;4173554;28;20057;-76
2022/05/31 10:35:24;;;;;;;3.45;1.00;;;21.00;52.10;;;;;;4180180;28;20061;-76
2022/05/31 10:37:32;;;;;;;0.85;0.70;;;21.10;51.50;;;;;;4176950;28;20750;-75
2022/05/31 10:39:37;;;;;;;3.25;0.93;;;21.00;51.80;;;;;;4176403;28;20168;-77
2022/05/31 10:41:45;;;;;;;5.03;1.33;;;20.90;54.70;;;;;;4177653;28;20140;-78
2022/05/31 10:44:10;;;;;;;1.30;1.20;;;20.60;55.30;;;;;;4179008;28;20799;-75
2022/05/31 10:46:13;;;;;;;2.72;1.35;;;20.50;55.60;;;;;;4179065;28;20063;-75
2022/05/31 10:48:15;;;;;;;4.40;1.55;;;20.50;56.30;;;;;;4179646;28;20061;-75
2022/05/31 10:50:17;;;;;;;3.80;1.20;;;20.40;57.00;;;;;;4195098;28;20064;-75
2022/05/31 10:52:41;;;;;;;2.60;1.20;;;20.50;56.40;;;;;;4187712;28;20064;-75
2022/05/31 10:54:55;;;;;;;7.90;1.58;;;20.60;56.50;;;;;;4172468;28;20057;-74
2022/05/31 10:57:06;;;;;;;4.32;1.20;;;20.80;55.60;;;;;;4172844;28;20099;-76
2022/05/31 10:59:24;;;;;;;0.93;0.93;;;20.70;55.90;;;;;;4171082;28;20152;-76
2022/05/31 11:01:38;;;;;;;1.20;1.10;;;20.70;55.90;;;;;;4173924;28;20068;-76
2022/05/31 11:03:52;;;;;;;2.40;1.52;;;20.70;56.50;;;;;;4180273;28;20977;-75
2022/05/31 11:06:33;;;;;;;2.47;1.40;;;20.80;56.40;;;;;;4175985;28;20139;-74
2022/05/31 11:11:41;;;;;;;3.70;1.15;;;20.90;54.90;;;;;;4173289;28;20069;-75
2022/05/31 11:13:51;;;;;;;1.10;1.02;;;20.80;54.30;;;;;;4175954;28;20053;-76
2022/05/31 11:16:30;;;;;;;1.73;1.10;;;20.70;54.70;;;;;;4175077;28;21023;-76
2022/05/31 11:19:05;;;;;;;3.35;1.48;;;20.50;54.90;;;;;;4172549;28;20797;-76
2022/05/31 11:21:37;;;;;;;2.85;0.90;;;20.60;54.80;;;;;;4172290;28;20148;-77
2022/05/31 11:24:06;;;;;;;2.90;1.25;;;20.60;54.80;;;;;;4177652;28;20164;-75
2022/05/31 11:26:41;;;;;;;3.70;2.33;;;20.60;54.40;;;;;;4173380;28;20061;-75
2022/05/31 11:29:37;;;;;;;1.55;1.40;;;20.70;53.60;;;;;;4175866;28;20068;-75
2022/05/31 11:31:51;;;;;;;1.52;1.00;;;20.50;53.10;;;;;;4177306;28;20093;-76